Time;durP1;ratioP1;P1;durP2;ratioP2;P2;SDS_P1;SDS_P2;PMS_P1;PMS_P2;Temp;Humidity;BMP_temperature;BMP_pressure;BME280_temperature;BME280_humidity;BME280_pressure;Samples;Min_cycle;Max_cycle;Signal;HPM_P1;HPM_P2
2023/03/06 00:00:59;;;;;;;0.80;0.40;;;;;;;6.38;97.82;100360.25;5045182;28;20521;-74
2023/03/06 00:03:28;;;;;;;1.67;0.63;;;;;;;6.39;96.72;100368.03;5038818;28;20056;-73
2023/03/06 00:05:57;;;;;;;0.52;0.45;;;;;;;6.42;98.32;100372.44;5048929;28;20036;-73
2023/03/06 00:08:29;;;;;;;3.10;0.63;;;;;;;6.42;98.21;100370.72;5050617;28;20059;-73
2023/03/06 00:10:58;;;;;;;1.02;0.57;;;;;;;6.41;97.35;100381.81;5045572;28;20555;-76
2023/03/06 00:13:28;;;;;;;1.77;1.10;;;;;;;6.32;93.46;100376.28;5050263;28;20052;-72
2023/03/06 00:16:00;;;;;;;1.17;0.88;;;;;;;6.23;97.67;100370.78;5044510;28;20918;-72
2023/03/06 00:18:29;;;;;;;2.08;0.65;;;;;;;6.18;95.34;100378.31;5048625;28;20085;-73
2023/03/06 00:20:57;;;;;;;1.67;0.43;;;;;;;6.14;96.66;100385.81;5039815;28;20053;-73
2023/03/06 00:23:33;;;;;;;0.82;0.20;;;;;;;6.10;97.86;100381.41;5029364;28;20119;-71
2023/03/06 00:26:03;;;;;;;0.85;0.52;;;;;;;6.10;98.53;100389.09;5034747;28;20083;-72
2023/03/06 00:28:32;;;;;;;2.20;0.60;;;;;;;6.13;97.26;100384.09;5028883;28;20064;-74
2023/03/06 00:31:00;;;;;;;2.70;0.40;;;;;;;6.20;96.70;100378.38;5031489;28;20107;-74
2023/03/06 00:33:29;;;;;;;0.47;0.40;;;;;;;6.39;97.01;100383.47;5025747;28;20067;-72
2023/03/06 00:35:58;;;;;;;0.43;0.30;;;;;;;6.41;95.88;100393.78;5031629;28;20517;-72
2023/03/06 00:38:27;;;;;;;0.30;0.25;;;;;;;6.44;93.61;100391.38;5032534;28;20049;-73
2023/03/06 00:40:55;;;;;;;0.60;0.30;;;;;;;6.56;96.16;100396.09;5028906;28;20054;-76
2023/03/06 00:43:26;;;;;;;0.30;0.20;;;;;;;6.70;96.69;100393.25;5027195;28;20061;-73
2023/03/06 00:45:54;;;;;;;0.30;0.20;;;;;;;6.75;96.97;100392.56;5033178;28;20041;-72
2023/03/06 00:48:23;;;;;;;1.00;0.70;;;;;;;6.72;93.63;100389.06;5034239;28;20110;-71
2023/03/06 00:50:52;;;;;;;2.00;0.40;;;;;;;6.80;94.53;100391.91;5027889;28;20049;-71
2023/03/06 00:53:20;;;;;;;1.08;0.70;;;;;;;6.88;94.71;100393.09;5033256;28;20123;-71
2023/03/06 00:55:50;;;;;;;0.30;0.20;;;;;;;6.86;94.17;100397.28;5033541;28;20041;-72
2023/03/06 00:58:19;;;;;;;0.55;0.45;;;;;;;6.81;92.95;100403.97;5031636;28;20060;-71
2023/03/06 01:00:49;;;;;;;0.50;0.30;;;;;;;6.76;94.98;100410.63;5027350;28;20099;-70
2023/03/06 01:03:18;;;;;;;0.73;0.35;;;;;;;6.71;96.98;100406.97;5032981;28;20053;-71
2023/03/06 01:05:47;;;;;;;0.70;0.20;;;;;;;6.67;97.85;100412.84;5034669;28;20111;-72
2023/03/06 01:08:25;;;;;;;;;;;;;;;;;;;;;
2023/03/06 01:10:54;;;;;;;0.10;0.10;;;;;;;6.58;99.03;100418.47;5024670;28;20507;-76
2023/03/06 01:16:11;;;;;;;0.85;0.40;;;;;;;6.57;99.75;100418.41;5027128;28;20056;-71
2023/03/06 01:18:40;;;;;;;2.88;0.20;;;;;;;6.55;100.00;100420.03;5029305;28;20529;-72
2023/03/06 01:21:09;;;;;;;2.45;0.85;;;;;;;6.48;100.00;100419.81;5043934;27;20110;-71
2023/03/06 01:23:38;;;;;;;1.95;0.40;;;;;;;6.43;100.00;100421.31;5046963;28;20540;-76
2023/03/06 01:26:07;;;;;;;0.43;0.22;;;;;;;6.39;99.63;100434.88;5044654;28;20590;-76
2023/03/06 01:28:38;;;;;;;2.90;0.30;;;;;;;6.35;100.00;100439.81;5045437;28;20489;-72
2023/03/06 01:31:08;;;;;;;3.03;0.40;;;;;;;6.29;100.00;100445.56;5046311;28;20044;-77
2023/03/06 01:33:37;;;;;;;0.70;0.30;;;;;;;6.23;100.00;100440.16;5054467;28;20531;-76
2023/03/06 01:36:07;;;;;;;0.68;0.20;;;;;;;6.19;100.00;100441.72;5050772;28;20049;-77
2023/03/06 01:38:36;;;;;;;0.38;0.25;;;;;;;6.10;99.58;100436.22;5048645;28;20041;-72
2023/03/06 01:41:06;;;;;;;0.40;0.30;;;;;;;6.07;100.00;100446.38;5048991;28;20051;-74
2023/03/06 01:43:36;;;;;;;1.00;0.35;;;;;;;6.05;100.00;100450.56;5054464;28;20053;-76
2023/03/06 01:46:34;;;;;;;0.52;0.20;;;;;;;5.98;100.00;100453.66;5058034;28;20120;-74
2023/03/06 01:49:06;;;;;;;0.35;0.30;;;;;;;5.93;100.00;100455.97;5052704;28;20494;-76
2023/03/06 01:51:39;;;;;;;0.35;0.30;;;;;;;5.90;100.00;100458.44;5050928;28;20086;-76
2023/03/06 01:54:12;;;;;;;2.22;0.50;;;;;;;5.88;100.00;100457.47;5042952;28;20053;-76
2023/03/06 01:56:45;;;;;;;0.75;0.20;;;;;;;5.82;100.00;100458.09;5050747;28;20075;-76
2023/03/06 01:59:14;;;;;;;0.25;0.25;;;;;;;5.78;100.00;100465.59;5048298;28;20045;-78
2023/03/06 02:01:45;;;;;;;0.63;0.30;;;;;;;5.76;100.00;100460.41;5049964;28;20530;-75
2023/03/06 02:04:14;;;;;;;0.52;0.20;;;;;;;5.73;100.00;100464.53;5049197;28;20051;-76
2023/03/06 02:06:43;;;;;;;0.80;0.30;;;;;;;5.67;100.00;100467.69;5048447;28;20745;-76
2023/03/06 02:09:13;;;;;;;0.40;0.30;;;;;;;5.58;100.00;100475.84;5047492;28;20045;-79
2023/03/06 02:11:42;;;;;;;0.28;0.20;;;;;;;5.59;100.00;100480.19;5052728;28;20457;-74
2023/03/06 02:14:13;;;;;;;0.47;0.30;;;;;;;5.59;100.00;100485.31;5052239;28;20106;-75
2023/03/06 02:16:44;;;;;;;0.20;0.20;;;;;;;5.59;100.00;100492.13;5036592;28;20045;-76
2023/03/06 02:19:25;;;;;;;0.70;0.40;;;;;;;5.56;100.00;100498.00;5049531;28;20466;-78
2023/03/06 02:21:53;;;;;;;0.43;0.32;;;;;;;5.55;100.00;100495.38;5048736;28;20962;-78
2023/03/06 02:24:32;;;;;;;2.08;0.50;;;;;;;5.51;100.00;100496.91;5048855;28;20051;-77
2023/03/06 02:27:05;;;;;;;0.32;0.32;;;;;;;5.53;100.00;100503.00;5051007;28;20132;-77
2023/03/06 02:29:34;;;;;;;0.50;0.30;;;;;;;5.48;100.00;100499.34;5054299;28;20572;-76
2023/03/06 02:32:03;;;;;;;0.30;0.20;;;;;;;5.52;100.00;100506.41;5048509;28;20099;-75
2023/03/06 02:34:52;;;;;;;0.80;0.30;;;;;;;5.48;100.00;100503.63;5050266;28;20533;-73
2023/03/06 02:37:21;;;;;;;0.40;0.28;;;;;;;5.53;100.00;100507.25;5042778;28;20052;-74
2023/03/06 02:39:53;;;;;;;0.20;0.20;;;;;;;5.54;100.00;100512.44;5045443;28;20676;-74
2023/03/06 02:42:24;;;;;;;;;;;;;;;5.57;100.00;100512.59;5059470;28;20469;-74
2023/03/06 02:44:54;;;;;;;0.55;0.20;;;;;;;5.57;100.00;100510.03;5053248;28;19928;-72
2023/03/06 02:47:23;;;;;;;1.13;0.20;;;;;;;5.53;100.00;100518.41;5049783;28;20735;-74
2023/03/06 02:49:51;;;;;;;0.57;0.35;;;;;;;5.50;100.00;100512.22;5056523;28;20044;-78
2023/03/06 02:52:20;;;;;;;0.88;0.52;;;;;;;5.45;100.00;100520.63;5048387;28;20056;-74
2023/03/06 02:54:49;;;;;;;1.33;0.50;;;;;;;5.43;100.00;100516.25;5054091;28;20052;-75
2023/03/06 02:57:17;;;;;;;0.68;0.25;;;;;;;5.39;100.00;100520.34;5058228;28;20122;-74
2023/03/06 02:59:47;;;;;;;0.20;0.20;;;;;;;5.38;100.00;100522.81;5047511;28;20530;-75
2023/03/06 03:02:16;;;;;;;1.67;0.63;;;;;;;5.32;98.70;100525.13;5048556;28;20542;-73
2023/03/06 03:04:44;;;;;;;0.50;0.20;;;;;;;5.26;98.97;100528.25;5051731;28;20057;-74
2023/03/06 03:07:13;;;;;;;1.23;0.70;;;;;;;5.18;98.81;100535.59;5048383;28;20119;-73
2023/03/06 03:09:42;;;;;;;0.65;0.45;;;;;;;5.07;99.04;100541.91;5048989;28;20037;-73
2023/03/06 03:12:11;;;;;;;0.68;0.45;;;;;;;5.03;99.41;100545.13;5038055;28;20487;-73
2023/03/06 03:14:39;;;;;;;0.40;0.20;;;;;;;4.99;100.00;100544.09;5049980;28;20509;-73
2023/03/06 03:17:09;;;;;;;2.63;0.45;;;;;;;4.96;100.00;100549.06;5049146;28;20498;-74
2023/03/06 03:19:38;;;;;;;0.10;0.10;;;;;;;4.96;100.00;100548.19;5050929;28;20090;-73
2023/03/06 03:22:07;;;;;;;0.20;0.20;;;;;;;4.97;100.00;100548.28;5049301;28;20040;-73
2023/03/06 03:24:36;;;;;;;1.55;0.20;;;;;;;4.93;100.00;100550.63;5050266;28;20146;-73
2023/03/06 03:27:04;;;;;;;0.65;0.50;;;;;;;4.98;100.00;100556.84;5052009;28;20056;-73
2023/03/06 03:29:33;;;;;;;1.45;0.50;;;;;;;4.98;100.00;100562.84;5048228;28;20049;-73
2023/03/06 03:32:01;;;;;;;0.50;0.20;;;;;;;4.96;100.00;100555.88;5043653;28;20053;-73
2023/03/06 03:34:32;;;;;;;2.17;0.43;;;;;;;4.83;100.00;100556.97;5053910;28;20499;-72
2023/03/06 03:37:00;;;;;;;1.02;0.60;;;;;;;4.78;100.00;100559.28;5048179;28;20777;-73
2023/03/06 03:39:29;;;;;;;1.05;0.65;;;;;;;4.79;100.00;100555.94;5046428;28;20111;-75
2023/03/06 03:41:58;;;;;;;0.43;0.30;;;;;;;4.79;100.00;100557.63;5050260;28;20048;-75
2023/03/06 03:44:26;;;;;;;1.05;0.63;;;;;;;4.79;100.00;100573.00;5051358;28;20053;-76
2023/03/06 03:46:55;;;;;;;0.75;0.47;;;;;;;4.76;100.00;100571.16;5050141;28;20098;-77
2023/03/06 03:49:23;;;;;;;0.30;0.30;;;;;;;4.71;100.00;100559.81;5047137;28;20061;-77
2023/03/06 03:51:54;;;;;;;1.13;0.52;;;;;;;4.74;100.00;100577.91;5050838;28;20044;-77
2023/03/06 03:54:22;;;;;;;0.52;0.40;;;;;;;4.72;100.00;100579.53;5052988;28;20545;-77
2023/03/06 03:56:51;;;;;;;0.68;0.35;;;;;;;4.74;100.00;100582.13;5049589;28;20052;-77
2023/03/06 03:59:19;;;;;;;0.82;0.43;;;;;;;4.72;98.63;100584.66;5048886;28;20103;-76
2023/03/06 04:01:48;;;;;;;0.30;0.30;;;;;;;4.72;98.21;100581.19;5044483;28;20105;-76
2023/03/06 04:04:17;;;;;;;1.52;0.47;;;;;;;4.68;98.62;100580.16;5048737;28;20193;-80
2023/03/06 04:06:45;;;;;;;1.08;0.50;;;;;;;4.70;98.89;100595.63;5050785;28;20049;-79
2023/03/06 04:09:16;;;;;;;1.63;0.50;;;;;;;4.69;97.59;100588.72;5044401;28;20102;-79
2023/03/06 04:11:44;;;;;;;0.40;0.30;;;;;;;4.69;97.89;100593.84;5046494;28;20052;-80
2023/03/06 04:14:13;;;;;;;2.03;0.40;;;;;;;4.68;97.28;100592.09;5047533;28;20048;-79
2023/03/06 04:16:49;;;;;;;0.95;0.40;;;;;;;4.64;97.16;100590.19;5041857;28;20055;-78
2023/03/06 04:19:18;;;;;;;0.68;0.30;;;;;;;4.64;97.50;100588.50;5046029;28;20126;-80
2023/03/06 04:22:01;;;;;;;1.65;0.30;;;;;;;4.62;99.61;100587.53;5048458;27;20057;-79
2023/03/06 04:24:31;;;;;;;0.68;0.45;;;;;;;4.62;100.00;100595.22;5045024;28;20182;-80
2023/03/06 04:26:59;;;;;;;1.13;0.30;;;;;;;4.62;99.98;100587.53;5049220;28;20059;-79
2023/03/06 04:29:28;;;;;;;1.10;0.35;;;;;;;4.62;99.24;100590.97;5047630;28;20703;-80
2023/03/06 04:31:56;;;;;;;0.93;0.45;;;;;;;4.66;98.43;100593.69;5047545;28;20068;-82
2023/03/06 04:34:25;;;;;;;0.65;0.30;;;;;;;4.68;99.20;100597.22;5048527;28;20052;-79
2023/03/06 04:36:54;;;;;;;2.63;0.40;;;;;;;4.69;98.48;100599.84;5053323;28;20041;-77
2023/03/06 04:39:22;;;;;;;0.60;0.20;;;;;;;4.70;96.95;100600.75;5046409;28;20081;-79
2023/03/06 04:41:53;;;;;;;0.55;0.47;;;;;;;4.72;97.28;100597.47;5048293;28;20064;-78
2023/03/06 04:44:21;;;;;;;1.65;0.40;;;;;;;4.72;98.37;100594.91;5048175;28;20052;-79
2023/03/06 04:46:50;;;;;;;0.38;0.30;;;;;;;4.71;99.66;100602.50;5048465;28;20103;-78
2023/03/06 04:49:18;;;;;;;1.13;0.50;;;;;;;4.69;100.00;100599.84;5046365;28;20070;-78
2023/03/06 04:51:47;;;;;;;0.75;0.32;;;;;;;4.67;99.69;100598.88;5045130;28;20454;-79
2023/03/06 04:54:15;;;;;;;1.83;0.60;;;;;;;4.65;100.00;100597.06;5050580;28;20702;-81
2023/03/06 04:56:44;;;;;;;0.20;0.20;;;;;;;4.65;99.91;100599.63;5044996;28;20045;-80
2023/03/06 04:59:14;;;;;;;1.63;0.30;;;;;;;4.63;99.84;100594.44;5050713;28;20391;-79
2023/03/06 05:01:43;;;;;;;0.22;0.13;;;;;;;4.59;99.43;100603.63;5045646;28;20041;-79
2023/03/06 05:04:11;;;;;;;0.22;0.17;;;;;;;4.56;99.88;100612.88;5051038;28;20056;-82
2023/03/06 05:06:40;;;;;;;1.25;0.47;;;;;;;4.57;99.02;100609.47;5048154;28;20045;-79
2023/03/06 05:09:08;;;;;;;1.08;0.65;;;;;;;4.51;94.31;100614.28;5051012;28;20067;-80
2023/03/06 05:11:37;;;;;;;0.43;0.20;;;;;;;4.48;94.88;100598.75;5038964;28;20056;-81
2023/03/06 05:14:05;;;;;;;0.47;0.25;;;;;;;4.48;97.35;100607.31;5051733;28;20056;-80
2023/03/06 05:16:36;;;;;;;1.13;0.43;;;;;;;4.50;97.88;100615.09;5049966;28;20448;-79
2023/03/06 05:19:04;;;;;;;3.35;1.33;;;;;;;4.50;98.10;100612.53;5051444;28;20078;-81
2023/03/06 05:21:33;;;;;;;2.95;1.13;;;;;;;4.51;98.02;100617.75;5048261;27;20061;-81
2023/03/06 05:24:01;;;;;;;3.53;1.10;;;;;;;4.51;98.39;100622.88;5049827;28;20069;-81
2023/03/06 05:26:30;;;;;;;2.35;0.88;;;;;;;4.52;98.12;100613.50;5047909;28;20052;-79
2023/03/06 05:28:58;;;;;;;9.43;1.05;;;;;;;4.51;98.07;100620.31;5048895;28;20414;-79
2023/03/06 05:31:27;;;;;;;0.40;0.38;;;;;;;4.53;98.56;100612.69;5051794;28;20513;-78
2023/03/06 05:33:59;;;;;;;0.70;0.28;;;;;;;4.54;98.74;100609.34;5052508;28;20500;-78
2023/03/06 05:36:28;;;;;;;2.83;1.23;;;;;;;4.56;98.68;100607.75;5046545;28;20056;-86
2023/03/06 05:38:56;;;;;;;0.85;0.30;;;;;;;4.54;98.75;100610.22;5051133;28;20520;-84
2023/03/06 05:41:25;;;;;;;0.70;0.40;;;;;;;4.54;99.39;100614.47;5050299;28;20477;-85
2023/03/06 05:43:59;;;;;;;0.50;0.40;;;;;;;4.51;99.27;100624.53;5050233;28;20213;-80
2023/03/06 05:46:28;;;;;;;2.30;0.50;;;;;;;4.50;99.77;100617.66;5049552;28;20052;-81
2023/03/06 05:48:58;;;;;;;4.20;0.40;;;;;;;4.52;99.73;100621.19;5050785;28;20421;-82
2023/03/06 05:51:27;;;;;;;1.85;0.82;;;;;;;4.51;99.86;100616.84;5052055;28;20057;-87
2023/03/06 05:53:55;;;;;;;2.40;1.48;;;;;;;4.51;99.77;100616.84;5052346;28;20063;-82
2023/03/06 05:56:24;;;;;;;3.47;1.40;;;;;;;4.52;100.00;100616.94;5047269;28;20118;-80
2023/03/06 05:58:53;;;;;;;1.63;1.00;;;;;;;4.53;100.00;100628.06;5045259;28;20080;-77
2023/03/06 06:01:24;;;;;;;5.50;0.70;;;;;;;4.53;98.15;100626.38;5052257;28;20120;-82
2023/03/06 06:03:53;;;;;;;5.68;1.73;;;;;;;4.55;99.16;100621.34;5043474;28;20582;-81
2023/03/06 06:06:23;;;;;;;1.80;1.60;;;;;;;4.56;99.35;100630.81;5046537;28;20409;-79
2023/03/06 06:08:52;;;;;;;3.42;1.80;;;;;;;4.58;98.96;100627.50;5051043;28;20044;-78
2023/03/06 06:11:21;;;;;;;3.65;1.65;;;;;;;4.57;99.47;100635.97;5044088;28;20410;-79
2023/03/06 06:13:50;;;;;;;2.42;1.40;;;;;;;4.56;99.57;100634.25;5048839;28;20045;-80
2023/03/06 06:16:19;;;;;;;1.50;1.13;;;;;;;4.57;100.00;100640.25;5050545;28;20474;-80
2023/03/06 06:18:47;;;;;;;2.70;1.02;;;;;;;4.56;100.00;100644.47;5051990;28;20057;-78
2023/03/06 06:21:16;;;;;;;2.78;1.17;;;;;;;4.56;100.00;100643.63;5050578;27;20057;-76
2023/03/06 06:23:46;;;;;;;1.52;0.82;;;;;;;4.56;100.00;100646.19;5051968;28;20114;-75
2023/03/06 06:26:15;;;;;;;1.88;0.85;;;;;;;4.56;99.22;100653.88;5047374;28;20059;-76
2023/03/06 06:28:43;;;;;;;2.05;0.80;;;;;;;4.53;99.97;100654.56;5057819;28;20052;-77
2023/03/06 06:31:13;;;;;;;0.60;0.50;;;;;;;4.51;97.34;100651.06;5049173;28;20045;-77
2023/03/06 06:33:41;;;;;;;5.25;0.50;;;;;;;4.51;97.01;100655.28;5049785;28;20086;-75
2023/03/06 06:36:17;;;;;;;1.50;1.02;;;;;;;4.52;98.17;100647.69;5049344;28;20819;-74
2023/03/06 06:38:47;;;;;;;1.63;0.63;;;;;;;4.55;98.26;100652.97;5043770;28;20045;-75
2023/03/06 06:41:16;;;;;;;2.97;1.15;;;;;;;4.56;98.08;100653.88;5055505;28;20044;-75
2023/03/06 06:43:45;;;;;;;3.47;1.52;;;;;;;4.56;97.41;100659.00;5051143;28;20044;-75
2023/03/06 06:46:13;;;;;;;5.65;1.25;;;;;;;4.52;94.14;100657.06;5048210;28;20049;-75
2023/03/06 06:48:42;;;;;;;5.25;1.55;;;;;;;4.55;95.48;100659.78;5044295;28;20057;-75
2023/03/06 06:51:10;;;;;;;1.40;0.70;;;;;;;4.56;95.40;100656.44;5047119;28;20111;-75
2023/03/06 06:53:39;;;;;;;1.90;0.43;;;;;;;4.58;91.94;100665.03;5050009;28;20033;-75
2023/03/06 06:56:09;;;;;;;1.00;0.50;;;;;;;4.59;91.74;100665.13;5052854;28;20044;-76
2023/03/06 06:58:38;;;;;;;3.90;1.13;;;;;;;4.60;93.77;100668.56;5047218;28;20049;-74
2023/03/06 07:01:07;;;;;;;4.82;0.73;;;;;;;4.60;94.92;100673.69;5041665;28;20045;-76
2023/03/06 07:03:36;;;;;;;0.82;0.47;;;;;;;4.62;93.34;100667.84;5044682;28;20140;-75
2023/03/06 07:06:05;;;;;;;2.00;0.63;;;;;;;4.65;92.53;100671.38;5050126;28;20621;-75
2023/03/06 07:08:34;;;;;;;2.83;0.40;;;;;;;4.68;91.88;100679.25;5039784;28;20062;-74
2023/03/06 07:11:13;;;;;;;1.45;0.68;;;;;;;4.70;90.47;100680.22;5044017;28;20056;-75
2023/03/06 07:13:42;;;;;;;1.40;0.40;;;;;;;4.68;89.43;100682.69;5042924;28;20041;-76
2023/03/06 07:16:11;;;;;;;0.88;0.47;;;;;;;4.75;89.49;100687.31;5050109;28;20052;-75
2023/03/06 07:18:40;;;;;;;3.45;0.70;;;;;;;4.75;89.34;100697.56;5048816;28;20049;-75
2023/03/06 07:21:08;;;;;;;3.90;1.13;;;;;;;4.75;89.00;100692.44;5049998;27;20057;-76
2023/03/06 07:23:37;;;;;;;1.05;0.43;;;;;;;4.78;89.26;100695.16;5051769;28;20051;-76
2023/03/06 07:26:06;;;;;;;1.65;0.63;;;;;;;4.81;88.76;100697.00;5049896;28;20045;-76
2023/03/06 07:28:36;;;;;;;1.80;0.65;;;;;;;4.81;90.02;100692.78;5047099;28;20647;-75
2023/03/06 07:31:10;;;;;;;3.90;0.95;;;;;;;4.83;89.46;100692.81;5045691;28;20040;-75
2023/03/06 07:33:39;;;;;;;0.63;0.43;;;;;;;4.71;90.38;100680.25;5045798;28;20044;-76
2023/03/06 07:36:12;;;;;;;0.63;0.38;;;;;;;4.79;90.09;100702.06;5048319;28;20402;-75
2023/03/06 07:38:40;;;;;;;1.10;0.47;;;;;;;4.82;90.43;100697.06;5046051;28;20053;-75
2023/03/06 07:41:12;;;;;;;2.70;0.60;;;;;;;4.87;89.93;100696.44;5051076;28;20040;-74
2023/03/06 07:43:43;;;;;;;0.82;0.50;;;;;;;4.88;89.32;100693.06;5051362;28;20053;-75
2023/03/06 07:46:11;;;;;;;2.42;0.70;;;;;;;4.87;88.29;100697.31;5043995;28;20040;-75
2023/03/06 07:48:40;;;;;;;1.75;0.80;;;;;;;4.86;88.77;100694.69;5044093;28;20735;-75
2023/03/06 07:51:14;;;;;;;1.00;0.45;;;;;;;4.88;88.47;100693.97;5043055;28;20111;-74
2023/03/06 07:53:42;;;;;;;1.67;0.70;;;;;;;4.87;88.06;100689.63;5049861;28;20052;-76
2023/03/06 07:56:11;;;;;;;0.88;0.47;;;;;;;4.81;89.82;100687.66;5048628;28;20056;-74
2023/03/06 07:58:43;;;;;;;1.00;0.20;;;;;;;4.79;89.08;100684.13;5048943;28;20054;-75
2023/03/06 08:01:14;;;;;;;0.85;0.50;;;;;;;4.75;87.72;100687.31;5049758;28;20044;-74
2023/03/06 08:03:43;;;;;;;0.38;0.20;;;;;;;4.76;87.92;100701.00;5045019;28;20052;-74
2023/03/06 08:06:13;;;;;;;0.63;0.30;;;;;;;4.77;87.99;100695.97;5044852;28;20045;-75
2023/03/06 08:08:43;;;;;;;0.60;0.28;;;;;;;4.77;88.17;100706.22;5046296;28;20134;-74
2023/03/06 08:11:14;;;;;;;0.65;0.32;;;;;;;4.77;87.33;100711.34;5046265;28;20041;-76
2023/03/06 08:13:45;;;;;;;1.88;0.30;;;;;;;4.75;86.95;100707.81;5047756;28;20048;-75
2023/03/06 08:16:14;;;;;;;2.30;0.75;;;;;;;4.78;87.76;100707.97;5045283;28;20047;-75
2023/03/06 08:18:42;;;;;;;1.55;0.30;;;;;;;4.79;87.56;100712.31;5044613;28;20090;-75
2023/03/06 08:21:14;;;;;;;5.22;0.32;;;;;;;4.79;86.89;100714.00;5053960;27;20057;-75
2023/03/06 08:23:43;;;;;;;1.15;0.30;;;;;;;4.77;85.87;100716.47;5048702;28;20056;-76
2023/03/06 08:26:14;;;;;;;2.00;0.43;;;;;;;4.77;87.17;100719.03;5049515;28;20071;-75
2023/03/06 08:28:44;;;;;;;0.88;0.40;;;;;;;4.78;86.73;100723.34;5046618;28;20040;-74
2023/03/06 08:31:21;;;;;;;1.65;0.38;;;;;;;4.78;88.35;100728.47;5050054;28;20049;-75
2023/03/06 08:33:49;;;;;;;1.58;0.30;;;;;;;4.77;86.79;100723.28;5046054;28;20060;-74
2023/03/06 08:36:18;;;;;;;1.33;0.40;;;;;;;4.75;87.49;100723.19;5051940;28;20055;-74
2023/03/06 08:38:46;;;;;;;0.20;0.10;;;;;;;4.77;87.21;100729.28;5045466;28;20041;-74
2023/03/06 08:41:15;;;;;;;0.80;0.35;;;;;;;4.79;88.09;100725.13;5047234;28;20037;-74
2023/03/06 08:43:45;;;;;;;0.35;0.15;;;;;;;4.78;87.77;100723.34;5053030;28;20533;-74
2023/03/06 08:46:14;;;;;;;1.10;0.45;;;;;;;4.76;87.83;100724.94;5052865;28;20045;-74
2023/03/06 08:48:43;;;;;;;0.15;0.05;;;;;;;4.78;89.29;100717.34;5051462;28;20065;-74
2023/03/06 08:51:11;;;;;;;0.70;0.40;;;;;;;4.78;88.14;100728.47;5051380;28;20063;-74
2023/03/06 08:53:40;;;;;;;0.40;0.28;;;;;;;4.77;88.72;100726.72;5048486;28;20045;-74
2023/03/06 08:56:09;;;;;;;0.15;0.10;;;;;;;4.74;87.83;100724.00;5048317;28;20049;-74
2023/03/06 08:58:37;;;;;;;0.70;0.45;;;;;;;4.73;87.27;100732.50;5048486;28;20041;-75
2023/03/06 09:01:14;;;;;;;0.88;0.32;;;;;;;4.72;85.55;100737.53;5058726;28;20486;-76
2023/03/06 09:03:42;;;;;;;0.57;0.22;;;;;;;4.70;85.98;100744.28;5053471;28;20051;-74
2023/03/06 09:06:11;;;;;;;0.75;0.10;;;;;;;4.70;87.41;100742.59;5051109;28;20052;-76
2023/03/06 09:08:41;;;;;;;0.60;0.10;;;;;;;4.68;86.58;100746.75;5053359;28;20049;-74
2023/03/06 09:11:10;;;;;;;1.05;0.40;;;;;;;4.62;85.75;100738.72;5046652;28;20053;-75
2023/03/06 09:13:39;;;;;;;0.90;0.40;;;;;;;4.60;86.06;100748.00;5049551;28;20388;-74
2023/03/06 09:16:09;;;;;;;0.65;0.22;;;;;;;4.59;86.10;100744.56;5056321;28;20040;-75
2023/03/06 09:18:38;;;;;;;0.50;0.30;;;;;;;4.59;86.56;100746.25;5050531;28;20060;-76
2023/03/06 09:21:07;;;;;;;0.20;0.20;;;;;;;4.55;86.21;100752.03;5049646;28;20478;-74
2023/03/06 09:23:36;;;;;;;0.10;0.10;;;;;;;4.58;86.87;100753.06;5047969;28;20103;-74
2023/03/06 09:26:05;;;;;;;0.65;0.30;;;;;;;4.59;86.24;100756.50;5054128;28;20056;-75
2023/03/06 09:28:35;;;;;;;0.00;0.00;;;;;;;4.60;86.56;100754.03;5048958;28;20049;-75
2023/03/06 09:31:10;;;;;;;0.45;0.20;;;;;;;4.59;87.46;100759.94;5055445;28;20629;-75
2023/03/06 09:33:46;;;;;;;0.05;0.05;;;;;;;4.58;86.28;100760.75;5050364;28;20056;-74
2023/03/06 09:36:17;;;;;;;0.65;0.10;;;;;;;4.58;86.50;100771.00;5049226;28;20045;-75
2023/03/06 09:38:47;;;;;;;0.52;0.20;;;;;;;4.58;86.17;100770.09;5047163;28;20045;-75
2023/03/06 09:41:32;;;;;;;0.20;0.10;;;;;;;4.56;86.34;100769.19;5045828;28;20066;-74
2023/03/06 09:44:07;;;;;;;0.98;0.28;;;;;;;4.57;85.94;100768.38;5049335;28;20483;-75
2023/03/06 09:47:08;;;;;;;0.50;0.10;;;;;;;4.56;85.80;100777.72;5049410;28;20045;-74
2023/03/06 09:49:50;;;;;;;0.03;0.03;;;;;;;4.59;85.32;100777.00;5046739;28;20060;-75
2023/03/06 09:52:31;;;;;;;0.52;0.20;;;;;;;4.63;86.15;100789.19;5050754;28;20111;-75
2023/03/06 09:55:10;;;;;;;0.22;0.10;;;;;;;4.62;86.32;100787.41;5053510;28;20052;-75
2023/03/06 09:57:43;;;;;;;0.55;0.15;;;;;;;4.64;88.60;100779.81;5051675;28;20053;-74
2023/03/06 10:00:14;;;;;;;;;;;;;;;4.66;92.34;100779.09;5058982;28;20053;-74
2023/03/06 10:02:47;;;;;;;0.13;0.13;;;;;;;4.66;90.91;100779.09;5048047;28;19924;-75
2023/03/06 10:05:21;;;;;;;0.10;0.10;;;;;;;4.67;89.28;100783.41;5048059;28;20707;-75
2023/03/06 10:07:55;;;;;;;0.03;0.03;;;;;;;4.72;90.31;100786.22;5050855;28;20133;-75
2023/03/06 10:10:27;;;;;;;0.20;0.10;;;;;;;4.75;90.27;100782.16;5049516;28;20056;-75
2023/03/06 10:13:03;;;;;;;0.03;0.03;;;;;;;4.79;92.11;100781.53;5050498;28;20571;-74
2023/03/06 10:15:34;;;;;;;0.20;0.20;;;;;;;4.77;88.37;100782.25;5049876;28;20049;-75
2023/03/06 10:18:06;;;;;;;0.00;0.00;;;;;;;4.80;88.15;100777.28;5052957;28;21158;-74
2023/03/06 10:20:55;;;;;;;0.20;0.20;;;;;;;4.80;86.23;100782.41;5048378;28;20052;-74
2023/03/06 10:23:39;;;;;;;0.13;0.13;;;;;;;4.82;86.93;100781.69;5018638;28;20046;-74
2023/03/06 10:26:14;;;;;;;1.52;0.20;;;;;;;4.87;87.52;100773.34;5025815;28;20054;-74
2023/03/06 10:28:47;;;;;;;0.30;0.15;;;;;;;4.86;90.55;100782.72;5023115;28;20543;-74
2023/03/06 10:31:21;;;;;;;1.00;0.10;;;;;;;4.85;87.36;100774.94;5027306;28;20085;-74
2023/03/06 10:33:55;;;;;;;0.17;0.10;;;;;;;4.84;88.90;100774.06;5026375;28;20490;-74
2023/03/06 10:36:27;;;;;;;0.30;0.20;;;;;;;4.85;89.51;100769.81;5031858;28;20122;-74
2023/03/06 10:38:57;;;;;;;0.40;0.38;;;;;;;4.87;89.55;100774.22;5024105;28;20049;-75
2023/03/06 10:41:28;;;;;;;0.98;0.20;;;;;;;4.87;93.54;100770.78;5025666;28;20045;-74
2023/03/06 10:44:19;;;;;;;0.10;0.00;;;;;;;4.84;88.30;100771.50;5028231;28;20700;-74
2023/03/06 10:46:50;;;;;;;1.05;0.93;;;;;;;4.83;93.84;100768.06;5028700;28;20060;-74
2023/03/06 10:49:32;;;;;;;1.65;0.10;;;;;;;4.77;88.86;100777.13;5025751;28;20160;-74
2023/03/06 10:52:04;;;;;;;0.10;0.03;;;;;;;4.74;88.58;100776.94;5024217;28;20128;-73
2023/03/06 10:54:34;;;;;;;0.10;0.10;;;;;;;4.75;88.90;100778.72;5021797;28;20090;-74
2023/03/06 10:57:22;;;;;;;0.00;0.00;;;;;;;4.68;87.35;100786.88;5024779;28;20046;-75
2023/03/06 10:59:55;;;;;;;0.30;0.15;;;;;;;4.66;89.46;100780.78;5027080;28;20131;-74
2023/03/06 11:02:30;;;;;;;0.55;0.30;;;;;;;4.63;91.79;100789.19;5024667;28;20571;-74
2023/03/06 11:05:02;;;;;;;1.65;0.40;;;;;;;4.60;89.92;100786.44;5017243;28;20091;-74
2023/03/06 11:07:31;;;;;;;0.10;0.10;;;;;;;4.61;89.68;100788.22;5022650;28;20053;-74
2023/03/06 11:10:08;;;;;;;0.30;0.10;;;;;;;4.63;92.26;100789.19;5021285;28;20153;-74
2023/03/06 11:12:38;;;;;;;0.65;0.10;;;;;;;4.63;91.45;100789.19;5027003;28;20515;-74
2023/03/06 11:15:23;;;;;;;1.65;0.28;;;;;;;4.63;91.55;100789.19;5025702;28;20045;-74
2023/03/06 11:18:02;;;;;;;1.90;0.17;;;;;;;4.59;93.20;100777.00;5024890;28;20054;-74
2023/03/06 11:20:34;;;;;;;0.00;0.00;;;;;;;4.65;92.38;100791.81;5023725;28;20040;-74
2023/03/06 11:23:08;;;;;;;0.28;0.15;;;;;;;4.62;92.07;100792.53;5044192;27;20495;-74
2023/03/06 11:25:41;;;;;;;0.00;0.00;;;;;;;4.60;94.18;100796.69;5047540;28;20044;-74
2023/03/06 11:28:19;;;;;;;0.00;0.00;;;;;;;4.61;94.16;100795.91;5048434;28;20127;-74
2023/03/06 11:30:50;;;;;;;0.13;0.10;;;;;;;4.61;93.90;100796.78;5049692;28;20572;-75
2023/03/06 11:33:26;;;;;;;0.30;0.00;;;;;;;4.61;95.15;100795.91;5046676;28;20072;-74
2023/03/06 11:36:01;;;;;;;0.00;0.00;;;;;;;4.56;94.76;100794.81;5048574;28;20049;-73
2023/03/06 11:38:42;;;;;;;0.20;0.10;;;;;;;4.52;94.73;100805.69;5049740;28;20053;-74
2023/03/06 11:41:21;;;;;;;0.10;0.00;;;;;;;4.47;95.48;100802.00;5051562;28;20071;-73
2023/03/06 11:43:59;;;;;;;0.00;0.00;;;;;;;4.41;96.03;100802.53;5050295;28;20041;-74
2023/03/06 11:46:33;;;;;;;0.22;0.20;;;;;;;4.38;98.41;100803.22;5046349;28;20061;-74
2023/03/06 11:49:13;;;;;;;0.40;0.20;;;;;;;4.30;99.75;100807.03;5043920;28;20056;-74
2023/03/06 11:51:51;;;;;;;0.25;0.10;;;;;;;4.29;100.00;100797.59;5047022;28;20060;-73
2023/03/06 11:54:20;;;;;;;0.10;0.10;;;;;;;4.26;100.00;100794.88;5046964;28;20107;-74